createdAt,value
2024-05-09T00:00:42.021Z,87.1876
2024-05-09T00:01:41.882Z,87.2745
2024-05-09T00:02:43.998Z,87.3191
2024-05-09T00:03:46.206Z,87.4156
2024-05-09T00:04:48.360Z,87.3931
2024-05-09T00:05:50.550Z,87.5865
2024-05-09T00:06:52.655Z,87.6254
2024-05-09T00:07:54.757Z,87.6123
2024-05-09T00:08:56.847Z,87.5162
2024-05-09T00:09:58.931Z,87.5124
2024-05-09T00:11:01.073Z,87.5579
2024-05-09T00:12:03.221Z,87.4720
2024-05-09T00:13:05.547Z,87.5465
2024-05-09T00:14:07.695Z,87.3899
2024-05-09T00:15:09.782Z,87.4328
2024-05-09T00:16:11.869Z,87.4988
2024-05-09T00:17:14.055Z,87.5503
2024-05-09T00:18:16.398Z,87.4770
2024-05-09T00:19:18.698Z,87.5362
2024-05-09T00:20:28.052Z,87.5796
2024-05-09T00:21:21.391Z,87.6266
2024-05-09T00:22:23.447Z,87.6135
2024-05-09T00:23:25.608Z,87.5826
2024-05-09T00:24:27.718Z,87.5968
2024-05-09T00:25:29.789Z,87.6202
2024-05-09T00:26:32.014Z,87.6662
2024-05-09T00:27:34.072Z,87.6823
2024-05-09T00:28:36.199Z,87.7681
2024-05-09T00:29:38.291Z,87.8158
2024-05-09T00:30:40.335Z,87.7851
2024-05-09T00:31:42.481Z,87.8804
2024-05-09T00:32:44.682Z,87.9437
2024-05-09T00:33:46.904Z,87.9266
2024-05-09T00:34:49.057Z,87.8958
2024-05-09T00:35:51.096Z,87.9144
2024-05-09T00:36:53.182Z,87.9098
2024-05-09T00:37:55.352Z,87.9431
2024-05-09T00:38:57.402Z,87.9543
2024-05-09T00:39:59.461Z,88.0162
2024-05-09T00:41:01.560Z,88.1260
2024-05-09T00:42:03.629Z,88.2076
2024-05-09T00:43:05.724Z,88.2300
2024-05-09T00:44:07.842Z,88.2379
2024-05-09T00:45:09.884Z,88.2166
2024-05-09T00:46:11.971Z,88.2899
2024-05-09T00:47:14.145Z,88.2594
2024-05-09T00:48:18.863Z,88.2289
2024-05-09T00:49:18.114Z,88.1433
2024-05-09T00:50:29.389Z,88.0005
2024-05-09T00:51:20.974Z,88.0568
2024-05-09T00:52:23.065Z,87.9807
2024-05-09T00:53:25.185Z,87.9082
2024-05-09T00:54:27.197Z,87.8967
2024-05-09T00:55:29.291Z,87.8388
2024-05-09T00:56:31.530Z,87.8302
2024-05-09T00:57:33.616Z,87.8306
2024-05-09T00:58:35.696Z,87.8182
2024-05-09T00:59:37.811Z,87.8046
2024-05-09T01:00:41.256Z,87.7322
2024-05-09T01:01:41.527Z,87.6847
2024-05-09T01:02:43.737Z,87.6988
2024-05-09T01:03:48.717Z,87.7430
2024-05-09T01:04:47.576Z,87.6324
2024-05-09T01:05:49.858Z,87.6140
2024-05-09T01:06:51.961Z,87.6267
2024-05-09T01:07:54.150Z,87.5176
2024-05-09T01:08:56.206Z,87.5848
2024-05-09T01:09:58.289Z,87.5005
2024-05-09T01:11:00.472Z,87.5846
2024-05-09T01:12:02.705Z,87.5419
2024-05-09T01:13:04.906Z,87.4689
2024-05-09T01:14:07.142Z,87.4307
2024-05-09T01:15:09.223Z,87.4543
2024-05-09T01:16:11.291Z,87.5242
2024-05-09T01:17:13.459Z,87.5005
2024-05-09T01:18:15.885Z,87.4673
2024-05-09T01:19:18.149Z,87.4793
2024-05-09T01:20:27.826Z,87.3868
2024-05-09T01:21:20.922Z,87.4146
2024-05-09T01:22:23.029Z,87.3416
2024-05-09T01:23:25.235Z,87.2994
2024-05-09T01:24:27.265Z,87.2400
2024-05-09T01:25:29.340Z,87.3426
2024-05-09T01:26:31.494Z,87.3749
2024-05-09T01:27:33.544Z,87.4391
2024-05-09T01:28:35.678Z,87.3996
2024-05-09T01:29:37.834Z,87.4141
2024-05-09T01:30:39.915Z,87.5300
2024-05-09T01:31:42.030Z,87.6340
2024-05-09T01:32:44.164Z,87.5701
2024-05-09T01:33:46.693Z,87.7028
2024-05-09T01:34:46.506Z,87.6069
2024-05-09T01:35:48.581Z,87.6014
2024-05-09T01:36:50.698Z,87.5918
2024-05-09T01:37:52.774Z,87.6273
2024-05-09T01:38:54.868Z,87.6567
2024-05-09T01:39:56.962Z,87.7321
2024-05-09T01:40:59.067Z,87.7383
2024-05-09T01:42:01.107Z,87.6704
2024-05-09T01:43:03.216Z,87.7471
2024-05-09T01:44:05.312Z,87.6947
2024-05-09T01:45:07.371Z,87.6417
2024-05-09T01:46:09.444Z,87.5921
2024-05-09T01:47:11.735Z,87.7767
2024-05-09T01:48:11.891Z,87.7242
2024-05-09T01:49:14.365Z,87.7550
2024-05-09T01:51:15.853Z,87.8423
2024-05-09T01:52:17.909Z,87.9072
2024-05-09T01:53:20.103Z,87.8414
2024-05-09T01:54:22.162Z,87.7693
2024-05-09T01:55:24.357Z,87.7037
2024-05-09T01:56:26.446Z,87.6747
2024-05-09T01:57:28.635Z,87.7192
2024-05-09T01:58:30.731Z,87.6797
2024-05-09T01:59:32.897Z,87.8230
2024-05-09T02:00:40.022Z,87.7658
2024-05-09T02:01:55.592Z,87.7759
2024-05-09T02:02:36.224Z,87.8721
2024-05-09T02:03:38.531Z,87.8348
2024-05-09T02:04:40.791Z,87.7243
2024-05-09T02:05:42.978Z,87.7254
2024-05-09T02:06:42.916Z,87.6648
2024-05-09T02:07:46.415Z,87.5335
2024-05-09T02:08:49.613Z,87.6938
2024-05-09T02:09:53.058Z,87.7141
2024-05-09T02:10:56.366Z,87.6886
2024-05-09T02:11:59.715Z,87.7384
2024-05-09T02:13:02.950Z,87.6342
2024-05-09T02:14:06.311Z,87.7663
2024-05-09T02:15:09.508Z,87.8115
2024-05-09T02:16:12.728Z,87.8192
2024-05-09T02:17:16.128Z,87.7217
2024-05-09T02:18:17.029Z,87.6720
2024-05-09T02:19:16.899Z,87.6264
2024-05-09T02:20:30.048Z,87.6837
2024-05-09T02:21:22.265Z,87.7364
2024-05-09T02:22:25.465Z,87.6942
2024-05-09T02:23:28.688Z,87.7066
2024-05-09T02:24:31.924Z,87.7538
2024-05-09T02:25:35.128Z,87.7505
2024-05-09T02:26:38.368Z,87.8403
2024-05-09T02:27:41.606Z,87.8232
2024-05-09T02:28:44.827Z,87.8564
2024-05-09T02:29:48.080Z,87.8670
2024-05-09T02:30:51.272Z,87.8666
2024-05-09T02:31:54.574Z,87.9486
2024-05-09T02:32:57.884Z,87.8492
2024-05-09T02:34:01.499Z,88.0671
2024-05-09T02:35:01.572Z,88.1209
2024-05-09T02:36:04.946Z,87.9383
2024-05-09T02:37:08.177Z,88.0741
2024-05-09T02:38:11.491Z,87.9382
2024-05-09T02:39:11.436Z,88.0243
2024-05-09T02:40:18.119Z,88.0788
2024-05-09T02:41:16.794Z,88.0982
2024-05-09T02:42:18.115Z,88.1998
2024-05-09T02:43:21.279Z,88.2950
2024-05-09T02:44:24.591Z,88.2399
2024-05-09T02:45:27.833Z,88.3419
2024-05-09T02:46:27.905Z,88.3768
2024-05-09T02:47:31.183Z,88.3762
2024-05-09T02:48:34.561Z,88.3482
2024-05-09T02:49:37.818Z,88.2194
2024-05-09T02:50:41.297Z,88.3175
2024-05-09T02:51:41.176Z,88.2777
2024-05-09T02:52:44.381Z,88.3146
2024-05-09T02:53:47.646Z,88.4128
2024-05-09T02:54:50.943Z,88.4899
2024-05-09T02:55:54.158Z,88.4827
2024-05-09T02:56:57.342Z,88.4675
2024-05-09T02:58:00.587Z,88.3652
2024-05-09T02:59:03.875Z,88.4597
2024-05-09T03:00:12.101Z,88.5409
2024-05-09T03:01:09.175Z,88.5511
2024-05-09T03:02:12.498Z,88.5941
2024-05-09T03:03:16.080Z,88.6018
2024-05-09T03:04:16.151Z,88.4920
2024-05-09T03:05:19.541Z,88.6104
2024-05-09T03:06:22.725Z,88.5815
2024-05-09T03:07:26.220Z,88.6959
2024-05-09T03:08:26.164Z,88.8012
2024-05-09T03:09:29.337Z,88.8079
2024-05-09T03:10:35.852Z,88.7460
2024-05-09T03:11:34.815Z,88.7413
2024-05-09T03:12:37.859Z,88.6258
2024-05-09T03:13:35.152Z,88.6365
2024-05-09T03:14:38.352Z,88.7070
2024-05-09T03:15:41.618Z,88.7105
2024-05-09T03:16:44.823Z,88.7415
2024-05-09T03:17:48.162Z,88.7650
2024-05-09T03:18:48.041Z,88.7457
2024-05-09T03:19:51.300Z,88.7983
2024-05-09T03:20:54.590Z,88.7386
2024-05-09T03:21:57.825Z,88.7327
2024-05-09T03:23:01.053Z,88.7543
2024-05-09T03:24:04.299Z,88.7363
2024-05-09T03:25:05.563Z,88.7116
2024-05-09T03:26:08.856Z,88.7260
2024-05-09T03:27:12.020Z,88.7082
2024-05-09T03:28:15.312Z,88.7767
2024-05-09T03:29:15.344Z,88.8089
2024-05-09T03:30:29.552Z,88.7406
2024-05-09T03:31:20.731Z,88.8549
2024-05-09T03:32:24.121Z,88.8327
2024-05-09T03:33:27.518Z,88.8799
2024-05-09T03:34:30.948Z,89.0201
2024-05-09T03:35:34.207Z,89.0659
2024-05-09T03:36:37.394Z,89.0411
2024-05-09T03:37:40.599Z,89.0498
2024-05-09T03:38:43.876Z,89.0689
2024-05-09T03:39:47.046Z,88.9135
2024-05-09T03:40:50.890Z,89.0047
2024-05-09T03:41:51.020Z,89.1299
2024-05-09T03:42:54.230Z,89.0753
2024-05-09T03:43:58.354Z,89.0589
2024-05-09T03:44:58.052Z,89.0613
2024-05-09T03:46:01.284Z,88.9519
2024-05-09T03:47:04.537Z,88.9348
2024-05-09T03:48:08.096Z,89.0168
2024-05-09T03:49:08.088Z,89.0114
2024-05-09T03:50:18.316Z,88.9128
2024-05-09T03:51:13.549Z,89.0243
2024-05-09T03:52:16.790Z,88.9968
2024-05-09T03:53:20.144Z,89.0865
2024-05-09T03:54:23.317Z,88.9912
2024-05-09T03:55:26.544Z,88.9272
2024-05-09T03:56:29.776Z,89.0884
2024-05-09T03:57:32.996Z,88.9801
2024-05-09T03:58:36.231Z,89.0254
2024-05-09T03:59:39.588Z,89.0817
2024-05-09T04:00:42.845Z,89.0181
2024-05-09T04:01:46.196Z,89.1916
2024-05-09T04:02:49.513Z,89.2036
2024-05-09T04:03:52.845Z,89.1564
2024-05-09T04:04:56.116Z,89.1884
2024-05-09T04:05:59.375Z,89.0670
2024-05-09T04:07:02.563Z,89.0895
2024-05-09T04:08:05.799Z,89.0880
2024-05-09T04:09:05.850Z,89.0265
2024-05-09T04:10:13.885Z,89.0656
2024-05-09T04:11:11.232Z,88.8091
2024-05-09T04:12:14.635Z,88.6998
2024-05-09T04:13:17.843Z,88.7432
2024-05-09T04:14:21.118Z,88.6392
2024-05-09T04:15:24.355Z,88.5519
2024-05-09T04:16:24.416Z,88.5083
2024-05-09T04:17:27.740Z,88.4771
2024-05-09T04:18:31.091Z,88.4741
2024-05-09T04:19:34.535Z,88.3338
2024-05-09T04:20:40.364Z,88.2964
2024-05-09T04:21:40.951Z,88.2039
2024-05-09T04:22:44.267Z,88.2732
2024-05-09T04:23:47.547Z,88.2691
2024-05-09T04:24:50.786Z,88.3542
2024-05-09T04:25:54.839Z,88.3249
2024-05-09T04:26:54.558Z,88.3928
2024-05-09T04:27:57.830Z,88.4783
2024-05-09T04:29:01.086Z,88.4905
2024-05-09T04:30:06.098Z,88.3920
2024-05-09T04:31:07.459Z,88.4888
2024-05-09T04:32:10.817Z,88.5331
2024-05-09T04:33:14.943Z,88.6277
2024-05-09T04:34:15.216Z,88.6153
2024-05-09T04:35:18.501Z,88.5771
2024-05-09T04:36:21.711Z,88.5014
2024-05-09T04:37:24.976Z,88.5295
2024-05-09T04:38:28.221Z,88.5214
2024-05-09T04:39:31.438Z,88.4078
2024-05-09T04:40:36.698Z,88.3130
2024-05-09T04:41:37.281Z,88.1658
2024-05-09T04:42:40.485Z,88.2513
2024-05-09T04:43:43.712Z,88.2833
2024-05-09T04:44:46.953Z,88.2809
2024-05-09T04:45:50.180Z,88.3620
2024-05-09T04:46:53.512Z,88.0948
2024-05-09T04:47:56.966Z,88.0239
2024-05-09T04:48:56.915Z,88.0307
2024-05-09T04:50:00.203Z,87.9366
2024-05-09T04:51:03.709Z,87.9598
2024-05-09T04:52:03.498Z,88.0670
2024-05-09T04:53:07.613Z,88.1495
2024-05-09T04:54:10.738Z,88.0385
2024-05-09T04:55:09.178Z,88.0751
2024-05-09T04:56:12.495Z,88.2625
2024-05-09T04:57:15.708Z,88.3034
2024-05-09T04:58:18.906Z,88.3440
2024-05-09T04:59:22.296Z,88.1792
2024-05-09T05:00:32.044Z,88.2341
2024-05-09T05:01:27.677Z,88.2127
2024-05-09T05:02:30.951Z,88.1371
2024-05-09T05:03:34.292Z,88.3074
2024-05-09T05:04:37.635Z,88.2125
2024-05-09T05:05:41.361Z,88.1170
2024-05-09T05:06:41.326Z,88.0026
2024-05-09T05:07:44.592Z,88.0183
2024-05-09T05:08:47.823Z,87.9262
2024-05-09T05:09:51.039Z,88.0965
2024-05-09T05:10:54.437Z,88.3084
2024-05-09T05:11:57.831Z,88.2911
2024-05-09T05:13:01.083Z,88.2820
2024-05-09T05:14:04.394Z,88.3190
2024-05-09T05:15:07.580Z,88.1380
2024-05-09T05:16:10.802Z,88.2373
2024-05-09T05:17:14.091Z,88.2140
2024-05-09T05:18:17.463Z,88.1164
2024-05-09T05:19:17.839Z,88.1337
2024-05-09T05:20:27.038Z,88.1222
2024-05-09T05:21:19.861Z,88.1002
2024-05-09T05:22:23.094Z,88.2157
2024-05-09T05:23:26.409Z,88.0259
2024-05-09T05:24:29.642Z,87.9298
2024-05-09T05:25:32.865Z,88.0139
2024-05-09T05:26:36.167Z,87.9905
2024-05-09T05:27:39.417Z,88.0413
2024-05-09T05:28:42.652Z,87.8424
2024-05-09T05:29:45.915Z,87.7928
2024-05-09T05:30:49.126Z,87.8493
2024-05-09T05:31:52.443Z,87.8502
2024-05-09T05:32:55.889Z,87.9434
2024-05-09T05:33:55.923Z,88.2778
2024-05-09T05:34:59.213Z,88.2584
2024-05-09T05:36:02.450Z,88.2005
2024-05-09T05:37:05.648Z,87.9932
2024-05-09T05:38:09.004Z,87.9079
2024-05-09T05:39:09.161Z,88.1616
2024-05-09T05:40:20.629Z,88.0645
2024-05-09T05:41:14.608Z,88.1088
2024-05-09T05:42:17.850Z,88.0488
2024-05-09T05:43:21.067Z,88.4294
2024-05-09T05:44:24.364Z,88.5117
2024-05-09T05:45:27.609Z,88.4650
2024-05-09T05:46:30.841Z,88.4215
2024-05-09T05:47:34.323Z,88.3791
2024-05-09T05:48:34.331Z,88.0996
2024-05-09T05:49:34.290Z,88.0928
2024-05-09T05:50:38.591Z,88.0672
2024-05-09T05:51:38.616Z,88.0789
2024-05-09T05:52:41.841Z,88.1918
2024-05-09T05:53:45.137Z,88.2286
2024-05-09T05:54:48.348Z,88.1151
2024-05-09T05:55:51.628Z,87.9711
2024-05-09T05:56:54.895Z,87.9503
2024-05-09T05:57:58.129Z,88.1920
2024-05-09T05:59:01.425Z,88.1359
2024-05-09T06:00:09.233Z,88.2746
2024-05-09T06:01:06.814Z,88.2713
2024-05-09T06:02:10.236Z,88.1297
2024-05-09T06:03:14.290Z,88.1037
2024-05-09T06:04:14.322Z,88.0355
2024-05-09T06:05:17.605Z,88.0094
2024-05-09T06:06:21.024Z,88.0214
2024-05-09T06:07:24.198Z,88.0039
2024-05-09T06:08:30.256Z,87.9296
2024-05-09T06:09:30.374Z,87.7103
2024-05-09T06:10:38.742Z,87.4809
2024-05-09T06:11:35.803Z,87.1426
2024-05-09T06:12:39.124Z,87.3069
2024-05-09T06:13:42.338Z,87.1248
2024-05-09T06:14:45.573Z,87.0956
2024-05-09T06:15:48.976Z,87.1867
2024-05-09T06:16:54.057Z,87.2151
2024-05-09T06:17:54.595Z,87.3104
2024-05-09T06:18:54.602Z,87.0597
2024-05-09T06:19:54.884Z,86.6769
2024-05-09T06:20:55.091Z,86.4938
2024-05-09T06:21:58.308Z,86.6534
2024-05-09T06:23:01.671Z,86.1854
2024-05-09T06:24:06.778Z,85.9748
2024-05-09T06:25:06.536Z,86.0807
2024-05-09T06:26:09.845Z,85.7627
2024-05-09T06:27:13.038Z,85.2966
2024-05-09T06:28:16.363Z,85.6217
2024-05-09T06:29:19.601Z,85.6220
2024-05-09T06:30:30.115Z,85.2074
2024-05-09T06:31:25.005Z,85.1490
2024-05-09T06:32:28.348Z,84.9221
2024-05-09T06:33:31.764Z,84.8571
2024-05-09T06:34:35.082Z,84.5234
2024-05-09T06:35:38.521Z,84.3391
2024-05-09T06:36:38.331Z,84.2256
2024-05-09T06:37:41.615Z,83.6155
2024-05-09T06:38:44.931Z,83.1660
2024-05-09T06:39:48.145Z,82.8597
2024-05-09T06:40:51.427Z,83.4329
2024-05-09T06:41:51.388Z,83.7361
2024-05-09T06:42:54.621Z,83.5094
2024-05-09T06:43:57.962Z,83.8620
2024-05-09T06:45:01.152Z,83.9621
2024-05-09T06:46:04.376Z,83.1331
2024-05-09T06:47:07.785Z,83.3758
2024-05-09T06:48:11.267Z,83.1746
2024-05-09T06:49:11.412Z,82.8488
2024-05-09T06:50:20.153Z,82.3269
2024-05-09T06:51:13.742Z,82.1860
2024-05-09T06:52:16.962Z,81.9663
2024-05-09T06:53:20.380Z,81.0116
2024-05-09T06:54:23.711Z,81.7370
2024-05-09T06:55:26.939Z,82.3828
2024-05-09T06:56:30.358Z,82.2718
2024-05-09T06:57:33.561Z,82.1553
2024-05-09T06:58:36.908Z,82.0840
2024-05-09T06:59:40.268Z,82.1533
2024-05-09T07:00:43.633Z,81.8305
2024-05-09T07:01:46.920Z,81.6110
2024-05-09T07:02:50.349Z,81.9328
2024-05-09T07:03:53.663Z,82.7415
2024-05-09T07:04:57.018Z,82.7048
2024-05-09T07:05:56.938Z,82.4016
2024-05-09T07:07:00.212Z,82.4555
2024-05-09T07:08:03.526Z,82.6880
2024-05-09T07:09:06.768Z,82.7400
2024-05-09T07:10:14.990Z,82.5112
2024-05-09T07:11:12.229Z,82.3598
2024-05-09T07:12:15.539Z,82.4108
2024-05-09T07:13:18.890Z,82.2293
2024-05-09T07:14:22.194Z,82.2629
2024-05-09T07:15:25.395Z,82.6282
2024-05-09T07:16:28.622Z,82.1704
2024-05-09T07:17:32.088Z,82.3597
2024-05-09T07:18:35.508Z,82.1027
2024-05-09T07:19:35.515Z,82.2389
2024-05-09T07:20:38.807Z,82.1985
2024-05-09T07:21:42.059Z,81.8123
2024-05-09T07:22:45.410Z,81.8892
2024-05-09T07:23:48.723Z,82.1816
2024-05-09T07:24:52.031Z,82.1007
2024-05-09T07:25:55.321Z,82.0059
2024-05-09T07:26:58.540Z,81.7234
2024-05-09T07:28:01.899Z,81.3929
2024-05-09T07:29:05.161Z,81.3083
2024-05-09T07:30:09.424Z,80.8158
2024-05-09T07:31:11.277Z,80.5268
2024-05-09T07:32:14.730Z,81.0975
2024-05-09T07:33:14.757Z,81.4832
2024-05-09T07:34:14.830Z,81.1286
2024-05-09T07:35:14.664Z,81.0938
2024-05-09T07:36:17.851Z,80.9604
2024-05-09T07:37:21.075Z,80.9751
2024-05-09T07:38:24.490Z,80.7874
2024-05-09T07:39:27.731Z,80.6094
2024-05-09T07:40:35.966Z,80.7798
2024-05-09T07:41:33.385Z,81.4113
2024-05-09T07:42:36.569Z,81.2632
2024-05-09T07:43:39.804Z,81.1749
2024-05-09T07:44:43.165Z,81.1680
2024-05-09T07:47:48.609Z,80.4215
2024-05-09T07:49:13.573Z,79.7339
2024-05-09T07:52:45.973Z,79.7030
2024-05-09T07:53:22.088Z,80.3731
2024-05-09T07:53:36.082Z,79.6667
2024-05-09T07:54:04.412Z,80.4560
2024-05-09T07:55:04.708Z,80.6910
2024-05-09T07:56:09.359Z,80.5458
2024-05-09T07:57:09.798Z,79.7721
2024-05-09T07:58:13.151Z,80.2992
2024-05-09T07:59:16.433Z,80.3138
2024-05-09T08:00:23.734Z,79.4940
2024-05-09T08:01:22.062Z,79.2091
2024-05-09T08:02:22.256Z,78.6433
2024-05-09T08:03:22.368Z,78.3422
2024-05-09T08:04:26.778Z,78.2352
2024-05-09T08:05:26.753Z,79.1689
2024-05-09T08:06:30.087Z,78.9879
2024-05-09T08:07:33.426Z,78.3953
2024-05-09T08:08:36.621Z,78.0128
2024-05-09T08:09:39.976Z,77.3377
2024-05-09T08:10:43.502Z,77.5764
2024-05-09T08:11:43.386Z,77.6902
2024-05-09T08:12:46.592Z,77.2412
2024-05-09T08:13:49.857Z,77.0180
2024-05-09T08:14:53.270Z,77.0526
2024-05-09T08:15:56.579Z,77.0101
2024-05-09T08:16:59.810Z,77.5412
2024-05-09T08:18:03.237Z,77.1364
2024-05-09T08:19:06.682Z,76.8349
2024-05-09T08:20:11.355Z,77.4841
2024-05-09T08:21:13.120Z,77.8960
2024-05-09T08:22:12.891Z,77.6280
2024-05-09T08:23:16.095Z,78.2188
2024-05-09T08:24:19.333Z,78.1887
2024-05-09T08:25:22.618Z,77.4548
2024-05-09T08:26:25.836Z,77.6929
2024-05-09T08:27:29.136Z,77.6020
2024-05-09T08:28:32.394Z,78.5267
2024-05-09T08:29:35.604Z,78.4471
2024-05-09T08:30:38.951Z,78.5709
2024-05-09T08:31:42.276Z,78.7717
2024-05-09T08:32:45.736Z,78.7824
2024-05-09T08:33:49.092Z,78.6701
2024-05-09T08:34:52.536Z,78.6163
2024-05-09T08:35:55.806Z,78.5971
2024-05-09T08:37:03.913Z,78.4293
2024-05-09T08:38:01.342Z,78.5956
2024-05-09T08:39:04.643Z,78.8404
2024-05-09T08:40:11.133Z,78.7277
2024-05-09T08:41:10.156Z,77.9303
2024-05-09T08:42:13.396Z,78.1032
2024-05-09T08:43:16.831Z,78.5907
2024-05-09T08:44:16.612Z,77.3889
2024-05-09T08:45:16.738Z,77.4457
2024-05-09T08:46:20.129Z,77.2592
2024-05-09T08:47:20.007Z,76.9095
2024-05-09T08:48:23.510Z,75.9200
2024-05-09T08:49:23.651Z,76.0747
2024-05-09T08:50:35.457Z,76.2970
2024-05-09T08:51:29.178Z,75.8635
2024-05-09T08:52:32.434Z,76.6864
2024-05-09T08:53:35.646Z,76.8379
2024-05-09T08:54:38.909Z,76.9396
2024-05-09T08:55:43.769Z,76.9746
2024-05-09T08:56:44.043Z,76.7994
2024-05-09T08:57:47.364Z,75.7853
2024-05-09T08:58:50.542Z,75.9323
2024-05-09T08:59:53.766Z,76.1538
2024-05-09T09:00:57.123Z,75.7543
2024-05-09T09:02:00.489Z,75.6795
2024-05-09T09:03:03.819Z,75.7571
2024-05-09T09:04:07.338Z,75.9319
2024-05-09T09:05:07.241Z,75.8634
2024-05-09T09:06:10.486Z,75.9999
2024-05-09T09:07:13.847Z,75.7910
2024-05-09T09:08:17.080Z,76.2025
2024-05-09T09:09:20.368Z,76.4458
2024-05-09T09:10:29.804Z,76.5283
2024-05-09T09:11:25.723Z,77.2177
2024-05-09T09:12:28.978Z,76.7438
2024-05-09T09:13:32.217Z,76.9209
2024-05-09T09:14:35.528Z,76.6389
2024-05-09T09:15:38.740Z,76.1434
2024-05-09T09:16:41.936Z,75.8863
2024-05-09T09:17:45.198Z,75.5501
2024-05-09T09:18:48.524Z,75.2461
2024-05-09T09:19:48.469Z,74.8271
2024-05-09T09:20:51.762Z,74.6407
2024-05-09T09:21:55.018Z,75.4344
2024-05-09T09:22:58.252Z,75.9871
2024-05-09T09:24:01.612Z,76.2761
2024-05-09T09:25:04.993Z,75.4873
2024-05-09T09:26:08.303Z,75.8637
2024-05-09T09:27:11.546Z,76.4006
2024-05-09T09:28:14.956Z,75.3321
2024-05-09T09:29:18.185Z,75.3899
2024-05-09T09:30:34.005Z,74.9896
2024-05-09T09:31:23.598Z,74.7138
2024-05-09T09:32:23.598Z,74.4267
2024-05-09T09:33:40.946Z,74.9149
2024-05-09T09:34:43.301Z,74.4968
2024-05-09T09:35:45.431Z,73.5670
2024-05-09T09:36:45.584Z,72.5104
2024-05-09T09:37:47.764Z,73.1476
2024-05-09T09:38:49.835Z,73.1572
2024-05-09T09:39:51.985Z,72.7042
2024-05-09T09:40:54.204Z,72.9853
2024-05-09T09:41:56.308Z,72.8505
2024-05-09T09:42:58.506Z,72.9739
2024-05-09T09:44:00.620Z,73.7053
2024-05-09T09:45:05.460Z,73.5442
2024-05-09T09:46:03.149Z,74.0808
2024-05-09T09:47:05.290Z,73.3310
2024-05-09T09:48:07.522Z,73.8209
2024-05-09T09:49:09.645Z,74.1797
2024-05-09T09:50:14.634Z,73.7738
2024-05-09T09:51:12.368Z,73.5651
2024-05-09T09:52:14.659Z,71.9642
2024-05-09T09:53:16.809Z,71.9088
2024-05-09T09:54:18.921Z,71.3568
2024-05-09T09:55:21.096Z,71.7626
2024-05-09T09:56:23.226Z,71.3749
2024-05-09T09:57:25.349Z,70.9989
2024-05-09T09:58:27.699Z,70.7254
2024-05-09T09:59:29.784Z,70.2937
2024-05-09T10:00:33.528Z,71.2910
2024-05-09T10:01:33.797Z,71.1133
2024-05-09T10:02:35.940Z,69.7172
2024-05-09T10:03:38.341Z,68.2253
2024-05-09T10:04:38.289Z,68.1512
2024-05-09T10:05:42.097Z,67.5123
2024-05-09T10:06:41.361Z,67.5869
2024-05-09T10:07:43.472Z,67.9941
2024-05-09T10:08:45.609Z,68.6022
2024-05-09T10:09:47.768Z,67.0724
2024-05-09T10:10:50.242Z,65.9269
2024-05-09T10:11:52.360Z,66.4180
2024-05-09T10:12:51.833Z,67.0499
2024-05-09T10:13:54.034Z,66.1307
2024-05-09T10:14:56.158Z,65.4710
2024-05-09T10:15:58.415Z,67.7480
2024-05-09T10:17:00.659Z,67.1115
2024-05-09T10:18:03.095Z,68.0762
2024-05-09T10:19:05.363Z,68.5856
2024-05-09T10:20:14.657Z,68.8768
2024-05-09T10:21:08.078Z,68.1018
2024-05-09T10:22:10.344Z,67.8610
2024-05-09T10:23:12.621Z,67.3345
2024-05-09T10:24:14.702Z,67.1542
2024-05-09T10:25:16.874Z,66.2188
2024-05-09T10:26:19.112Z,65.4990
2024-05-09T10:27:21.311Z,66.5749
2024-05-09T10:28:23.546Z,65.8285
2024-05-09T10:29:25.718Z,65.7041
2024-05-09T10:30:34.082Z,65.2124
2024-05-09T10:31:28.561Z,64.6522
2024-05-09T10:32:30.745Z,65.1046
2024-05-09T10:33:33.103Z,66.0987
2024-05-09T10:34:35.414Z,64.9602
2024-05-09T10:35:37.570Z,63.2090
2024-05-09T10:36:39.873Z,64.4000
2024-05-09T10:37:42.025Z,63.9073
2024-05-09T10:38:44.138Z,63.7256
2024-05-09T10:39:46.341Z,63.3351
2024-05-09T10:40:48.447Z,63.6817
2024-05-09T10:41:50.731Z,65.0165
2024-05-09T10:42:52.900Z,65.4489
2024-05-09T10:43:55.024Z,66.0170
2024-05-09T10:44:57.120Z,65.9332
2024-05-09T10:45:59.265Z,66.9454
2024-05-09T10:47:01.401Z,67.4203
2024-05-09T10:48:03.601Z,67.1253
2024-05-09T10:49:07.875Z,67.5413
2024-05-09T10:50:15.737Z,67.6246
2024-05-09T10:51:08.249Z,67.8914
2024-05-09T10:52:10.473Z,67.2734
2024-05-09T10:53:12.582Z,67.2032
2024-05-09T10:54:14.692Z,66.5428
2024-05-09T10:55:17.079Z,66.0699
2024-05-09T10:56:19.183Z,65.5747
2024-05-09T10:57:21.343Z,66.0619
2024-05-09T10:58:23.581Z,66.4011
2024-05-09T10:59:25.689Z,65.6155
2024-05-09T11:00:33.595Z,65.2830
2024-05-09T11:01:28.758Z,66.1560
2024-05-09T11:02:31.122Z,66.8785
2024-05-09T11:03:31.117Z,65.9361
2024-05-09T11:04:33.337Z,64.5490
2024-05-09T11:05:35.528Z,63.3836
2024-05-09T11:06:37.690Z,62.5802
2024-05-09T11:07:40.025Z,63.2331
2024-05-09T11:08:42.216Z,64.5313
2024-05-09T11:09:44.451Z,64.2752
2024-05-09T11:10:46.702Z,63.3497
2024-05-09T11:11:48.879Z,63.2695
2024-05-09T11:12:51.180Z,61.3634
2024-05-09T11:13:53.263Z,60.7288
2024-05-09T11:14:55.492Z,62.0244
2024-05-09T11:15:57.603Z,62.1555
2024-05-09T11:16:58.245Z,62.3506
2024-05-09T11:18:00.583Z,62.4756
2024-05-09T11:19:02.900Z,62.6927
2024-05-09T11:20:13.298Z,62.5275
2024-05-09T11:21:05.697Z,63.4995
2024-05-09T11:22:07.925Z,63.3725
2024-05-09T11:23:10.118Z,61.4235
2024-05-09T11:24:12.194Z,58.8586
2024-05-09T11:25:14.418Z,57.3483
2024-05-09T11:26:16.541Z,59.5911
2024-05-09T11:27:18.655Z,59.1318
2024-05-09T11:28:20.903Z,60.5612
2024-05-09T11:29:23.018Z,61.0155
2024-05-09T11:30:30.115Z,60.7216
2024-05-09T11:31:25.972Z,60.5859
2024-05-09T11:32:28.327Z,61.0835
2024-05-09T11:33:30.634Z,62.2861
2024-05-09T11:34:32.901Z,61.8816
2024-05-09T11:35:35.058Z,62.0266
2024-05-09T11:36:37.207Z,62.8695
2024-05-09T11:37:39.346Z,62.2839
2024-05-09T11:38:41.473Z,61.6455
2024-05-09T11:39:43.612Z,62.5486
2024-05-09T11:40:45.728Z,61.9697
2024-05-09T11:41:47.861Z,61.5293
2024-05-09T11:42:52.498Z,61.2836
2024-05-09T11:43:50.180Z,60.4142
2024-05-09T11:44:52.287Z,59.8044
2024-05-09T11:45:54.431Z,60.5131
2024-05-09T11:46:56.508Z,59.7451
2024-05-09T11:47:58.846Z,60.1535
2024-05-09T11:49:01.110Z,60.1622
2024-05-09T11:50:04.365Z,60.2786
2024-05-09T11:51:04.765Z,61.4790
2024-05-09T11:52:06.909Z,61.9249
2024-05-09T11:53:09.049Z,60.6965
2024-05-09T11:54:11.126Z,60.7094
2024-05-09T11:55:13.320Z,61.4084
2024-05-09T11:56:15.432Z,62.0569
2024-05-09T11:57:17.522Z,63.2739
2024-05-09T11:58:19.854Z,64.0317
2024-05-09T11:59:22.118Z,63.3232
2024-05-09T12:00:33.754Z,63.1429
2024-05-09T12:01:27.510Z,64.1913
2024-05-09T12:02:25.079Z,63.1451
2024-05-09T12:03:27.352Z,63.1587
2024-05-09T12:04:29.581Z,62.5099
2024-05-09T12:05:32.035Z,63.4010
2024-05-09T12:06:31.899Z,62.5286
2024-05-09T12:07:34.037Z,62.9186
2024-05-09T12:08:36.152Z,62.0896
2024-05-09T12:09:38.401Z,62.2631
2024-05-09T12:10:40.769Z,61.3017
2024-05-09T12:11:40.525Z,59.7550
2024-05-09T12:12:42.642Z,59.5091
2024-05-09T12:13:44.791Z,60.9235
2024-05-09T12:14:46.901Z,60.2865
2024-05-09T12:15:49.044Z,62.1175
2024-05-09T12:16:51.275Z,62.0944
2024-05-09T12:17:53.573Z,61.2208
2024-05-09T12:18:55.984Z,60.3172
2024-05-09T12:19:58.182Z,61.2935
2024-05-09T12:21:00.305Z,60.6243
2024-05-09T12:22:02.466Z,60.2825
2024-05-09T12:23:04.613Z,59.9990
2024-05-09T12:24:06.687Z,59.6200
2024-05-09T12:25:08.898Z,59.8903
2024-05-09T12:26:11.075Z,59.1660
2024-05-09T12:27:11.140Z,58.0807
2024-05-09T12:28:13.314Z,58.1525
2024-05-09T12:29:15.451Z,58.2692
2024-05-09T12:30:29.034Z,59.2712
2024-05-09T12:31:18.214Z,56.4542
2024-05-09T12:32:20.432Z,58.5055
2024-05-09T12:33:22.674Z,58.2492
2024-05-09T12:34:24.782Z,58.3336
2024-05-09T12:35:26.895Z,57.9950
2024-05-09T12:36:27.557Z,58.5826
2024-05-09T12:37:29.719Z,58.1012
2024-05-09T12:38:31.838Z,56.9551
2024-05-09T12:39:33.988Z,56.1904